createdAt,value
2018-11-13T09:05:28.802Z,99.90
2018-11-13T09:07:57.240Z,99.90
2018-11-13T09:10:25.744Z,99.90
2018-11-13T09:12:54.156Z,99.90
2018-11-13T09:15:23.169Z,99.90
2018-11-13T09:17:51.717Z,99.90
2018-11-13T09:20:20.913Z,99.90
2018-11-13T09:22:49.389Z,99.90
2018-11-13T09:25:19.197Z,99.90
2018-11-13T09:27:47.728Z,99.90
2018-11-13T09:30:18.293Z,99.90
2018-11-13T09:32:47.257Z,99.90
2018-11-13T09:35:16.576Z,99.90
2018-11-13T09:37:45.060Z,99.90
2018-11-13T09:40:15.543Z,99.90
2018-11-13T09:42:45.053Z,99.90
2018-11-13T09:45:14.254Z,99.90
2018-11-13T09:47:42.747Z,99.90
2018-11-13T09:50:13.905Z,99.90
2018-11-13T09:52:43.460Z,99.90
2018-11-13T09:55:13.506Z,99.90
2018-11-13T09:57:41.992Z,99.90
2018-11-13T10:00:15.294Z,99.90
2018-11-13T10:02:46.123Z,99.90
2018-11-13T10:05:14.765Z,99.90
2018-11-13T10:07:43.501Z,98.90
2018-11-13T10:10:12.819Z,98.00
2018-11-13T10:12:41.353Z,97.80
2018-11-13T10:15:12.429Z,98.20
2018-11-13T10:17:40.842Z,95.60
2018-11-13T10:20:11.112Z,94.60
2018-11-13T10:22:39.764Z,93.80
2018-11-13T10:25:09.000Z,93.60
2018-11-13T10:27:37.618Z,94.40
2018-11-13T10:30:09.023Z,94.30
2018-11-13T10:32:37.413Z,93.90
2018-11-13T10:35:07.172Z,96.10
2018-11-13T10:37:35.805Z,98.10
2018-11-13T10:40:05.147Z,99.90
2018-11-13T10:42:33.536Z,99.90
2018-11-13T10:45:01.978Z,99.90
2018-11-13T10:47:30.568Z,99.90
2018-11-13T10:49:58.945Z,99.90
2018-11-13T10:52:27.362Z,99.90
2018-11-13T10:54:55.781Z,99.90
2018-11-13T10:57:24.166Z,99.90
2018-11-13T10:59:52.623Z,99.90
2018-11-13T11:02:26.407Z,99.90
2018-11-13T11:04:54.866Z,99.90
2018-11-13T11:07:23.445Z,99.90
2018-11-13T11:09:52.161Z,99.90
2018-11-13T11:12:20.915Z,99.90
2018-11-13T11:14:49.288Z,99.90
2018-11-13T11:17:17.696Z,99.90
2018-11-13T11:19:46.219Z,99.90
2018-11-13T11:22:15.157Z,99.90
2018-11-13T11:24:43.576Z,99.90
2018-11-13T11:27:12.011Z,99.90
2018-11-13T11:29:40.412Z,99.90
2018-11-13T11:32:08.860Z,99.90
2018-11-13T11:34:38.031Z,99.90
2018-11-13T11:37:06.416Z,99.90
2018-11-13T11:39:34.825Z,99.90
2018-11-13T11:42:03.278Z,99.90
2018-11-13T11:44:31.773Z,99.90
2018-11-13T11:47:00.133Z,99.90
2018-11-13T11:49:28.550Z,99.90
2018-11-13T11:51:57.937Z,99.90
2018-11-13T11:54:26.375Z,99.90
2018-11-13T11:56:54.844Z,99.90
2018-11-13T11:59:23.424Z,99.90
2018-11-13T12:01:51.861Z,99.90
2018-11-13T12:04:20.317Z,99.90
2018-11-13T12:06:48.748Z,99.90
2018-11-13T12:09:17.181Z,99.90
2018-11-13T12:11:45.680Z,99.90
2018-11-13T12:14:14.097Z,99.90
2018-11-13T12:16:42.565Z,99.90
2018-11-13T12:19:10.977Z,99.90
2018-11-13T12:21:39.431Z,99.90
2018-11-13T12:24:07.860Z,99.90
2018-11-13T12:26:36.773Z,99.90
2018-11-13T12:29:05.766Z,99.90
2018-11-13T12:31:34.184Z,99.90
2018-11-13T12:34:02.725Z,99.90
2018-11-13T12:36:31.646Z,99.90
2018-11-13T12:39:00.201Z,99.90
2018-11-13T12:41:28.598Z,99.90
2018-11-13T12:43:57.005Z,99.90
2018-11-13T12:46:25.645Z,99.90
2018-11-13T12:48:54.320Z,99.90
2018-11-13T12:51:27.985Z,99.90
2018-11-13T12:53:58.380Z,99.90
2018-11-13T12:56:25.069Z,99.90
2018-11-13T12:58:53.509Z,99.90
2018-11-13T13:01:21.993Z,99.90
2018-11-13T13:03:50.539Z,99.90
2018-11-13T13:06:18.942Z,99.90
2018-11-13T13:08:47.555Z,99.90
2018-11-13T13:11:15.908Z,99.90
2018-11-13T13:13:45.024Z,99.90
2018-11-13T13:16:15.235Z,99.90
2018-11-13T13:18:44.329Z,99.90
2018-11-13T13:21:12.925Z,99.90
2018-11-13T13:23:41.469Z,99.90
2018-11-13T13:26:10.127Z,99.90
2018-11-13T13:28:38.509Z,99.90
2018-11-13T13:31:06.970Z,99.90
2018-11-13T13:33:35.417Z,99.90
2018-11-13T13:36:04.613Z,99.90
2018-11-13T13:38:34.642Z,99.90
2018-11-13T13:41:04.065Z,99.90
2018-11-13T13:43:33.236Z,99.90
2018-11-13T13:46:01.637Z,99.90
2018-11-13T13:48:30.177Z,99.90
2018-11-13T13:50:58.802Z,99.90
2018-11-13T13:53:27.984Z,99.90
2018-11-13T13:55:56.515Z,99.90
2018-11-13T13:58:25.541Z,99.90
2018-11-13T14:00:54.864Z,99.90
2018-11-13T14:03:23.234Z,99.90
2018-11-13T14:05:52.677Z,99.90
2018-11-13T14:08:21.230Z,99.90
2018-11-13T14:13:18.241Z,99.90
2018-11-13T14:15:46.764Z,99.90
2018-11-13T14:18:15.265Z,99.90
2018-11-13T14:20:43.690Z,99.90
2018-11-13T14:23:12.098Z,99.90
2018-11-13T14:25:40.547Z,99.90
2018-11-13T14:28:09.015Z,99.90
2018-11-13T14:30:38.102Z,99.90
2018-11-13T14:33:09.020Z,99.90
2018-11-13T14:35:38.056Z,99.90
2018-11-13T14:38:06.677Z,99.90
2018-11-13T14:49:50.433Z,99.90
2018-11-13T14:52:19.008Z,99.90
2018-11-13T14:54:47.606Z,99.90
2018-11-13T14:57:22.902Z,99.90
2018-11-13T14:59:51.465Z,99.90
2018-11-13T15:02:21.005Z,99.90
2018-11-13T15:04:49.460Z,99.90
2018-11-13T15:07:17.992Z,99.90
2018-11-13T15:09:46.398Z,99.90
2018-11-13T15:12:14.825Z,99.90
2018-11-13T15:14:43.306Z,99.90
2018-11-13T15:17:11.701Z,99.90
2018-11-13T15:19:40.089Z,99.90
2018-11-13T15:22:08.475Z,99.90
2018-11-13T15:24:37.180Z,99.90
2018-11-13T15:27:05.870Z,99.90
2018-11-13T15:29:34.862Z,99.90
2018-11-13T15:32:03.325Z,99.90
2018-11-13T15:34:31.705Z,99.90
2018-11-13T15:37:00.108Z,99.90
2018-11-13T15:39:28.615Z,99.90
2018-11-13T15:41:57.090Z,99.90
2018-11-13T15:44:26.143Z,99.90
2018-11-13T15:46:54.544Z,99.90
2018-11-13T15:49:23.063Z,99.90
2018-11-13T15:51:51.624Z,99.90
2018-11-13T15:54:19.985Z,99.90
2018-11-13T15:56:48.410Z,99.90
2018-11-13T15:59:16.869Z,99.90
2018-11-13T16:01:45.481Z,99.90
2018-11-13T16:04:13.935Z,99.90
2018-11-13T16:06:42.385Z,99.90
2018-11-13T16:09:11.138Z,99.90
2018-11-13T16:11:39.731Z,99.90
2018-11-13T16:14:08.230Z,99.90
2018-11-13T16:16:36.675Z,99.90
2018-11-13T16:19:05.114Z,99.90
2018-11-13T16:21:33.691Z,99.90
2018-11-13T16:24:02.644Z,99.90
2018-11-13T16:26:31.601Z,99.90
2018-11-13T16:29:00.188Z,99.90
2018-11-13T16:31:29.307Z,99.90
2018-11-13T16:33:58.519Z,99.90
2018-11-13T16:36:27.158Z,99.90
2018-11-13T16:38:55.563Z,99.90
2018-11-13T16:41:24.066Z,99.90
2018-11-13T16:43:52.582Z,99.90
2018-11-13T16:46:21.235Z,99.90
2018-11-13T16:48:49.709Z,99.90
2018-11-13T16:51:18.224Z,99.90
2018-11-13T16:53:51.921Z,99.90
2018-11-13T16:56:20.301Z,99.90
2018-11-13T16:58:48.844Z,99.90
2018-11-13T17:01:17.516Z,99.90
2018-11-13T17:03:45.976Z,99.90
2018-11-13T17:06:15.322Z,99.90
2018-11-13T17:08:43.780Z,99.90
2018-11-13T17:11:12.840Z,99.90
2018-11-13T17:13:41.354Z,99.90
2018-11-13T17:16:09.892Z,99.90
2018-11-13T17:18:45.680Z,99.90
2018-11-13T17:21:14.810Z,99.90
2018-11-13T17:23:43.282Z,99.90
2018-11-13T17:26:12.090Z,99.90
2018-11-13T17:28:41.080Z,99.90
2018-11-13T17:31:09.582Z,99.90
2018-11-13T17:33:38.000Z,99.90
2018-11-13T17:36:07.205Z,99.90
2018-11-13T17:38:36.564Z,99.90
2018-11-13T17:41:05.562Z,99.90
2018-11-13T17:43:34.046Z,99.90
2018-11-13T17:46:02.451Z,99.90
2018-11-13T17:48:30.940Z,99.90
2018-11-13T17:50:59.388Z,99.90
2018-11-13T17:53:27.983Z,99.90
2018-11-13T17:55:56.409Z,99.90
2018-11-13T17:58:24.901Z,99.90
2018-11-13T18:00:54.051Z,99.90
2018-11-13T18:03:22.591Z,99.90
2018-11-13T18:05:51.050Z,99.90
2018-11-13T18:08:19.479Z,99.90
2018-11-13T18:10:47.958Z,99.90
2018-11-13T18:13:16.547Z,99.90
2018-11-13T18:15:45.024Z,99.90
2018-11-13T18:18:13.505Z,99.90
2018-11-13T18:20:42.271Z,99.90
2018-11-13T18:23:11.007Z,99.90
2018-11-13T18:25:39.473Z,99.90
2018-11-13T18:28:08.117Z,99.90
2018-11-13T18:30:37.528Z,99.90
2018-11-13T18:33:06.607Z,99.90
2018-11-13T18:35:36.237Z,99.90
2018-11-13T18:38:06.248Z,99.90
2018-11-13T18:40:34.625Z,99.90
2018-11-13T18:43:03.684Z,99.90
2018-11-13T18:45:33.449Z,99.90
2018-11-13T18:48:02.063Z,99.90
2018-11-13T18:50:32.750Z,99.90
2018-11-13T18:53:01.674Z,99.90
2018-11-13T18:55:30.238Z,99.90
2018-11-13T18:57:59.344Z,99.90
2018-11-13T19:00:29.903Z,99.90
2018-11-13T19:02:59.069Z,99.90
2018-11-13T19:05:27.866Z,99.90
2018-11-13T19:07:56.521Z,99.90
2018-11-13T19:10:31.438Z,99.90
2018-11-13T19:13:01.173Z,99.90
2018-11-13T19:15:30.795Z,99.90
2018-11-13T19:17:59.346Z,99.90
2018-11-13T19:20:27.968Z,99.90
2018-11-13T19:22:56.397Z,99.90
2018-11-13T19:25:27.089Z,99.90
2018-11-13T19:27:56.184Z,99.90
2018-11-13T19:30:25.435Z,99.90
2018-11-13T19:32:53.874Z,99.90
2018-11-13T19:35:22.636Z,99.90
2018-11-13T19:37:51.049Z,99.90
2018-11-13T19:40:21.063Z,99.90
2018-11-13T19:42:50.166Z,99.90
2018-11-13T19:45:19.109Z,99.90
2018-11-13T19:47:47.461Z,99.90
2018-11-13T19:50:17.637Z,99.90
2018-11-13T19:52:46.078Z,99.90
2018-11-13T19:55:15.634Z,99.90
2018-11-13T19:57:44.817Z,99.90
2018-11-13T20:00:19.176Z,99.90
2018-11-13T20:02:48.536Z,99.90
2018-11-13T20:05:17.061Z,99.90
2018-11-13T20:07:46.150Z,99.90
2018-11-13T20:10:16.618Z,99.90
2018-11-13T20:12:46.083Z,99.90
2018-11-13T20:15:15.252Z,99.90
2018-11-13T20:17:43.828Z,99.90
2018-11-13T20:20:15.183Z,99.90
2018-11-13T20:22:43.862Z,99.90
2018-11-13T20:25:14.400Z,99.90
2018-11-13T20:27:42.910Z,99.90
2018-11-13T20:30:15.775Z,99.90
2018-11-13T20:32:44.234Z,99.90
2018-11-13T20:35:13.352Z,99.90
2018-11-13T20:37:43.023Z,99.90
2018-11-13T20:40:16.017Z,99.90
2018-11-13T20:42:47.231Z,99.90
2018-11-13T20:45:15.835Z,99.90
2018-11-13T20:47:44.483Z,99.90
2018-11-13T20:50:15.278Z,99.90
2018-11-13T20:52:44.680Z,99.90
2018-11-13T20:55:13.427Z,99.90
2018-11-13T20:57:42.098Z,99.90
2018-11-13T21:00:14.540Z,99.90
2018-11-13T21:02:43.100Z,99.90
2018-11-13T21:05:11.623Z,99.90
2018-11-13T21:07:40.281Z,99.90
2018-11-13T21:10:11.249Z,99.90
2018-11-13T21:12:40.331Z,99.90
2018-11-13T21:15:10.953Z,99.90
2018-11-13T21:17:39.418Z,99.90
2018-11-13T21:20:09.686Z,99.90
2018-11-13T21:22:38.261Z,99.90
2018-11-13T21:25:08.259Z,99.90
2018-11-13T21:27:36.628Z,99.90
2018-11-13T21:30:14.605Z,99.90
2018-11-13T21:32:44.036Z,99.90
2018-11-13T21:35:12.953Z,99.90
2018-11-13T21:37:42.510Z,99.90
2018-11-13T21:40:12.954Z,99.90
2018-11-13T21:42:41.576Z,99.90
2018-11-13T21:45:11.876Z,99.90
2018-11-13T21:47:40.401Z,99.90
2018-11-13T21:50:10.455Z,99.90
2018-11-13T21:52:38.898Z,99.90
2018-11-13T21:55:09.212Z,99.90
2018-11-13T21:57:37.723Z,99.90
2018-11-13T22:00:26.468Z,99.90
2018-11-13T22:02:56.556Z,99.90
2018-11-13T22:05:26.041Z,99.90
2018-11-13T22:07:54.492Z,99.90
2018-11-13T22:10:23.513Z,99.90
2018-11-13T22:12:51.981Z,99.90
2018-11-13T22:15:21.818Z,99.90
2018-11-13T22:17:50.296Z,99.90
2018-11-13T22:20:19.438Z,99.90
2018-11-13T22:22:48.783Z,99.90
2018-11-13T22:25:19.336Z,99.90
2018-11-13T22:27:48.957Z,99.90
2018-11-13T22:30:19.898Z,99.90
2018-11-13T22:32:48.674Z,99.90
2018-11-13T22:35:23.928Z,99.90
2018-11-13T22:37:52.454Z,99.90
2018-11-13T22:40:22.204Z,99.90
2018-11-13T22:42:50.992Z,99.90
2018-11-13T22:45:27.253Z,99.90
2018-11-13T22:47:56.144Z,99.90
2018-11-13T22:50:26.904Z,99.90
2018-11-13T22:52:56.164Z,99.90
2018-11-13T22:55:24.559Z,99.90
2018-11-13T22:57:54.471Z,99.90
2018-11-13T23:00:30.002Z,99.90
2018-11-13T23:02:58.481Z,99.90
2018-11-13T23:05:26.976Z,99.90
2018-11-13T23:07:55.461Z,99.90
